createdAt,value
2023-10-28T00:00:18.486Z,45.50
2023-10-28T00:01:20.189Z,27.50
2023-10-28T00:02:21.806Z,27.60
2023-10-28T00:03:23.494Z,27.00
2023-10-28T00:04:25.115Z,27.77
2023-10-28T00:05:26.694Z,28.70
2023-10-28T00:06:29.673Z,30.25
2023-10-28T00:07:32.634Z,24.90
2023-10-28T00:08:34.434Z,31.90
2023-10-28T00:09:36.219Z,39.55
2023-10-28T00:10:37.996Z,35.17
2023-10-28T00:11:39.637Z,32.15
2023-10-28T00:12:41.526Z,37.67
2023-10-28T00:13:43.263Z,66.28
2023-10-28T00:14:44.859Z,77.93
2023-10-28T00:15:46.442Z,48.42
2023-10-28T00:16:48.058Z,49.38
2023-10-28T00:17:49.669Z,51.63
2023-10-28T00:18:52.520Z,58.75
2023-10-28T00:19:54.156Z,47.67
2023-10-28T00:20:55.732Z,45.55
2023-10-28T00:21:57.282Z,34.50
2023-10-28T00:23:00.586Z,60.97
2023-10-28T00:24:02.412Z,88.43
2023-10-28T00:25:04.656Z,55.40
2023-10-28T00:26:07.196Z,42.15
2023-10-28T00:27:08.811Z,52.05
2023-10-28T00:28:10.485Z,56.92
2023-10-28T00:29:12.099Z,52.88
2023-10-28T00:30:14.668Z,42.65
2023-10-28T00:31:18.658Z,54.92
2023-10-28T00:32:20.431Z,51.10
2023-10-28T00:33:22.018Z,59.40
2023-10-28T00:34:24.923Z,55.63
2023-10-28T00:35:28.179Z,64.07
2023-10-28T00:36:29.785Z,63.17
2023-10-28T00:37:31.409Z,66.10
2023-10-28T00:38:34.393Z,67.20
2023-10-28T00:39:36.074Z,50.58
2023-10-28T00:40:38.045Z,51.00
2023-10-28T00:41:39.798Z,57.20
2023-10-28T00:42:41.404Z,50.60
2023-10-28T00:43:43.022Z,57.75
2023-10-28T00:44:45.295Z,60.05
2023-10-28T00:45:46.962Z,59.88
2023-10-28T00:46:48.661Z,62.67
2023-10-28T00:47:50.409Z,86.47
2023-10-28T00:48:52.244Z,73.00
2023-10-28T00:49:54.226Z,58.00
2023-10-28T00:50:56.136Z,51.55
2023-10-28T00:51:58.472Z,56.72
2023-10-28T00:53:01.400Z,55.10
2023-10-28T00:54:04.628Z,84.72
2023-10-28T00:55:07.234Z,53.60
2023-10-28T00:56:10.187Z,99.30
2023-10-28T00:57:12.043Z,51.95
2023-10-28T00:58:13.663Z,50.15
2023-10-28T00:59:15.795Z,54.65
2023-10-28T01:00:17.783Z,81.28
2023-10-28T01:01:20.181Z,74.30
2023-10-28T01:02:21.898Z,39.70
2023-10-28T01:03:23.739Z,61.67
2023-10-28T01:04:25.365Z,42.97
2023-10-28T01:05:27.216Z,38.25
2023-10-28T01:06:29.524Z,55.70
2023-10-28T01:07:32.422Z,50.45
2023-10-28T01:08:34.040Z,79.25
2023-10-28T01:09:46.411Z,115.53
2023-10-28T01:10:48.094Z,60.30
2023-10-28T01:11:49.791Z,84.65
2023-10-28T01:12:51.416Z,58.13
2023-10-28T01:13:53.060Z,85.22
2023-10-28T01:14:54.770Z,35.60
2023-10-28T01:15:57.756Z,30.08
2023-10-28T01:16:59.400Z,40.40
2023-10-28T01:18:01.155Z,47.97
2023-10-28T01:19:02.815Z,44.97
2023-10-28T01:20:05.561Z,53.13
2023-10-28T01:21:12.174Z,36.40
2023-10-28T01:22:13.913Z,48.88
2023-10-28T01:23:15.521Z,79.35
2023-10-28T01:24:17.152Z,51.50
2023-10-28T01:25:18.962Z,52.33
2023-10-28T01:26:20.881Z,53.30
2023-10-28T01:27:22.480Z,54.35
2023-10-28T01:28:24.093Z,33.28
2023-10-28T01:29:25.735Z,46.67
2023-10-28T01:30:27.355Z,57.30
2023-10-28T01:31:29.004Z,46.40
2023-10-28T01:32:30.661Z,48.30
2023-10-28T01:33:32.225Z,38.42
2023-10-28T01:34:33.947Z,47.33
2023-10-28T01:35:35.574Z,47.97
2023-10-28T01:36:39.790Z,53.53
2023-10-28T01:37:41.639Z,32.40
2023-10-28T01:38:43.329Z,31.77
2023-10-28T01:39:45.392Z,43.88
2023-10-28T01:40:47.073Z,44.58
2023-10-28T01:41:48.665Z,41.95
2023-10-28T01:42:50.546Z,50.45
2023-10-28T01:43:52.226Z,45.65
2023-10-28T01:44:53.858Z,48.97
2023-10-28T01:45:55.477Z,68.70
2023-10-28T01:46:57.134Z,50.75
2023-10-28T01:47:58.857Z,61.08
2023-10-28T01:49:00.479Z,37.13
2023-10-28T01:50:02.112Z,42.35
2023-10-28T01:51:03.782Z,44.83
2023-10-28T01:52:07.193Z,39.70
2023-10-28T01:53:08.822Z,47.83
2023-10-28T01:54:10.430Z,42.25
2023-10-28T01:55:12.513Z,47.38
2023-10-28T01:56:16.568Z,53.22
2023-10-28T01:57:18.721Z,56.78
2023-10-28T01:58:20.402Z,80.65
2023-10-28T01:59:22.111Z,49.50
2023-10-28T02:00:23.808Z,68.20
2023-10-28T02:01:25.618Z,44.13
2023-10-28T02:02:27.312Z,52.97
2023-10-28T02:03:29.891Z,42.67
2023-10-28T02:04:32.240Z,63.97
2023-10-28T02:05:33.960Z,56.55
2023-10-28T02:06:35.548Z,42.65
2023-10-28T02:07:38.718Z,54.80
2023-10-28T02:08:40.539Z,67.63
2023-10-28T02:09:42.503Z,49.03
2023-10-28T02:10:44.166Z,65.80
2023-10-28T02:11:45.771Z,55.88
2023-10-28T02:12:48.751Z,51.35
2023-10-28T02:13:51.679Z,47.08
2023-10-28T02:14:53.340Z,60.88
2023-10-28T02:15:55.086Z,59.78
2023-10-28T02:16:56.794Z,49.20
2023-10-28T02:17:58.479Z,67.05
2023-10-28T02:19:00.714Z,62.20
2023-10-28T02:20:02.317Z,45.33
2023-10-28T02:21:04.010Z,41.17
2023-10-28T02:22:13.493Z,39.45
2023-10-28T02:23:18.505Z,54.15
2023-10-28T02:24:20.105Z,72.70
2023-10-28T02:25:21.707Z,50.20
2023-10-28T02:26:23.370Z,49.42
2023-10-28T02:27:24.945Z,48.40
2023-10-28T02:28:26.505Z,41.90
2023-10-28T02:29:28.138Z,47.95
2023-10-28T02:30:29.708Z,52.83
2023-10-28T02:31:31.363Z,53.17
2023-10-28T02:32:33.443Z,29.95
2023-10-28T02:33:35.130Z,21.60
2023-10-28T02:34:37.067Z,24.67
2023-10-28T02:35:38.748Z,23.40
2023-10-28T02:36:40.366Z,37.42
2023-10-28T02:37:41.961Z,23.35
2023-10-28T02:38:44.844Z,20.38
2023-10-28T02:39:46.677Z,14.98
2023-10-28T02:40:48.806Z,15.48
2023-10-28T02:41:50.413Z,14.88
2023-10-28T02:42:52.005Z,16.35
2023-10-28T02:43:53.672Z,12.57
2023-10-28T02:44:55.441Z,19.95
2023-10-28T02:45:57.094Z,20.00
2023-10-28T02:46:58.876Z,14.23
2023-10-28T02:48:00.537Z,19.30
2023-10-28T02:49:02.208Z,14.50
2023-10-28T02:50:04.253Z,12.18
2023-10-28T02:51:07.090Z,11.73
2023-10-28T02:52:09.912Z,13.43
2023-10-28T02:53:11.607Z,16.42
2023-10-28T02:54:14.581Z,13.02
2023-10-28T02:55:16.497Z,13.60
2023-10-28T02:56:18.223Z,16.65
2023-10-28T02:57:19.936Z,12.65
2023-10-28T02:58:21.489Z,11.23
2023-10-28T02:59:23.083Z,12.95
2023-10-28T03:00:24.635Z,10.18
2023-10-28T03:01:26.226Z,13.02
2023-10-28T03:02:27.951Z,14.95
2023-10-28T03:03:30.210Z,17.55
2023-10-28T03:04:31.901Z,15.65
2023-10-28T03:05:33.500Z,14.88
2023-10-28T03:06:35.247Z,17.02
2023-10-28T03:07:36.926Z,13.80
2023-10-28T03:08:38.632Z,11.00
2023-10-28T03:09:43.914Z,14.50
2023-10-28T03:10:45.551Z,16.98
2023-10-28T03:11:47.181Z,12.10
2023-10-28T03:12:48.837Z,14.80
2023-10-28T03:13:50.509Z,14.18
2023-10-28T03:14:53.267Z,12.45
2023-10-28T03:15:55.073Z,12.48
2023-10-28T03:16:56.803Z,12.50
2023-10-28T03:17:58.419Z,14.85
2023-10-28T03:19:00.022Z,21.58
2023-10-28T03:20:01.848Z,17.38
2023-10-28T03:21:03.754Z,15.15
2023-10-28T03:22:05.333Z,13.48
2023-10-28T03:23:06.988Z,9.80
2023-10-28T03:24:09.227Z,14.48
2023-10-28T03:25:12.157Z,13.18
2023-10-28T03:26:13.971Z,10.07
2023-10-28T03:27:15.613Z,14.52
2023-10-28T03:28:17.193Z,10.93
2023-10-28T03:29:18.813Z,10.32
2023-10-28T03:30:20.717Z,9.85
2023-10-28T03:31:25.226Z,10.05
2023-10-28T03:32:27.156Z,10.45
2023-10-28T03:33:28.872Z,13.45
2023-10-28T03:34:30.473Z,9.90
2023-10-28T03:35:32.295Z,14.15
2023-10-28T03:36:34.076Z,9.93
2023-10-28T03:37:35.831Z,8.88
2023-10-28T03:38:37.576Z,12.88
2023-10-28T03:39:39.169Z,8.07
2023-10-28T03:40:42.162Z,9.07
2023-10-28T03:41:43.914Z,10.60
2023-10-28T03:42:45.496Z,7.40
2023-10-28T03:43:47.146Z,10.27
2023-10-28T03:44:48.926Z,7.95
2023-10-28T03:45:50.738Z,12.40
2023-10-28T03:46:52.460Z,12.38
2023-10-28T03:47:54.090Z,13.35
2023-10-28T03:48:55.730Z,9.27
2023-10-28T03:49:57.353Z,12.38
2023-10-28T03:50:59.537Z,10.07
2023-10-28T03:52:01.262Z,7.25
2023-10-28T03:53:02.900Z,12.60
2023-10-28T03:54:05.247Z,9.07
2023-10-28T03:55:08.186Z,8.82
2023-10-28T03:56:11.143Z,6.57
2023-10-28T03:57:13.251Z,14.18
2023-10-28T03:58:14.940Z,11.40
2023-10-28T03:59:16.718Z,7.75
2023-10-28T04:00:18.616Z,8.50
2023-10-28T04:01:20.209Z,12.25
2023-10-28T04:02:21.842Z,6.35
2023-10-28T04:03:24.659Z,7.75
2023-10-28T04:04:26.249Z,10.38
2023-10-28T04:05:27.851Z,7.80
2023-10-28T04:06:29.514Z,9.95
2023-10-28T04:07:31.136Z,9.32
2023-10-28T04:08:32.755Z,10.85
2023-10-28T04:09:34.353Z,10.93
2023-10-28T04:10:36.026Z,6.82
2023-10-28T04:11:38.934Z,10.32
2023-10-28T04:12:40.720Z,8.18
2023-10-28T04:13:42.356Z,5.13
2023-10-28T04:14:44.053Z,8.05
2023-10-28T04:15:45.674Z,9.15
2023-10-28T04:16:47.308Z,7.43
2023-10-28T04:17:48.949Z,8.18
2023-10-28T04:18:50.703Z,8.93
2023-10-28T04:19:52.517Z,14.70
2023-10-28T04:20:54.178Z,5.47
2023-10-28T04:21:55.859Z,7.10
2023-10-28T04:22:57.433Z,10.23
2023-10-28T04:23:59.058Z,8.07
2023-10-28T04:25:00.705Z,8.57
2023-10-28T04:26:02.484Z,5.75
2023-10-28T04:27:05.595Z,8.68
2023-10-28T04:28:07.343Z,8.45
2023-10-28T04:29:09.050Z,7.40
2023-10-28T04:30:11.380Z,8.60
2023-10-28T04:31:12.990Z,6.20
2023-10-28T04:32:14.736Z,9.98
2023-10-28T04:33:16.478Z,10.90
2023-10-28T04:34:29.118Z,9.05
2023-10-28T04:35:34.543Z,5.70
2023-10-28T04:36:36.228Z,8.60
2023-10-28T04:37:37.866Z,9.15
2023-10-28T04:38:39.455Z,11.30
2023-10-28T04:39:41.092Z,10.50
2023-10-28T04:40:42.674Z,10.48
2023-10-28T04:41:44.300Z,11.05
2023-10-28T04:42:47.213Z,9.05
2023-10-28T04:43:48.954Z,9.18
2023-10-28T04:44:50.932Z,9.75
2023-10-28T04:45:53.560Z,12.88
2023-10-28T04:46:55.260Z,6.70
2023-10-28T04:47:56.914Z,9.95
2023-10-28T04:48:58.529Z,8.20
2023-10-28T04:50:00.156Z,9.30
2023-10-28T04:51:01.785Z,9.55
2023-10-28T04:52:04.016Z,8.13
2023-10-28T04:53:06.023Z,8.43
2023-10-28T04:54:07.792Z,8.98
2023-10-28T04:55:09.335Z,8.15
2023-10-28T04:56:10.978Z,7.35
2023-10-28T04:57:12.641Z,10.30
2023-10-28T04:58:15.566Z,8.95
2023-10-28T04:59:17.243Z,8.90
2023-10-28T05:00:19.035Z,14.23
2023-10-28T05:01:20.666Z,8.25
2023-10-28T05:02:22.290Z,11.75
2023-10-28T05:03:24.132Z,7.35
2023-10-28T05:04:25.922Z,10.27
2023-10-28T05:05:27.564Z,7.45
2023-10-28T05:06:29.122Z,9.93
2023-10-28T05:07:30.858Z,10.27
2023-10-28T05:08:32.512Z,8.23
2023-10-28T05:09:36.051Z,10.77
2023-10-28T05:10:37.631Z,9.98
2023-10-28T05:11:39.206Z,10.85
2023-10-28T05:12:41.609Z,11.82
2023-10-28T05:13:44.556Z,9.25
2023-10-28T05:14:46.170Z,10.73
2023-10-28T05:15:47.865Z,7.22
2023-10-28T05:16:49.883Z,12.80
2023-10-28T05:17:51.534Z,8.50
2023-10-28T05:18:53.170Z,6.70
2023-10-28T05:19:54.776Z,9.93
2023-10-28T05:20:56.431Z,9.05
2023-10-28T05:21:58.008Z,7.95
2023-10-28T05:22:59.662Z,14.07
2023-10-28T05:24:01.359Z,8.65
2023-10-28T05:25:03.703Z,8.10
2023-10-28T05:26:05.449Z,9.15
2023-10-28T05:27:07.025Z,11.65
2023-10-28T05:28:08.626Z,10.80
2023-10-28T05:29:11.588Z,10.32
2023-10-28T05:30:14.221Z,8.18
2023-10-28T05:31:15.896Z,10.82
2023-10-28T05:32:17.612Z,8.82
2023-10-28T05:33:19.427Z,9.77
2023-10-28T05:34:21.004Z,13.02
2023-10-28T05:35:22.834Z,12.30
2023-10-28T05:36:24.600Z,14.27
2023-10-28T05:37:26.198Z,9.32
2023-10-28T05:38:27.754Z,9.52
2023-10-28T05:39:29.625Z,10.73
2023-10-28T05:40:31.344Z,11.43
2023-10-28T05:41:32.943Z,10.55
2023-10-28T05:42:34.521Z,8.98
2023-10-28T05:43:36.185Z,9.48
2023-10-28T05:44:39.256Z,12.30
2023-10-28T05:45:40.905Z,9.43
2023-10-28T05:46:42.629Z,7.63
2023-10-28T05:47:44.199Z,8.68
2023-10-28T05:48:45.859Z,9.15
2023-10-28T05:49:47.752Z,9.98
2023-10-28T05:50:49.512Z,12.15
2023-10-28T05:51:51.225Z,11.30
2023-10-28T05:52:52.901Z,9.02
2023-10-28T05:53:54.592Z,10.48
2023-10-28T05:54:56.155Z,8.93
2023-10-28T05:55:57.780Z,10.77
2023-10-28T05:56:59.424Z,10.93
2023-10-28T05:58:01.085Z,11.20
2023-10-28T05:59:02.694Z,10.45
2023-10-28T06:00:07.202Z,20.58
2023-10-28T06:01:09.333Z,7.47
2023-10-28T06:02:11.041Z,12.90
2023-10-28T06:03:12.763Z,8.60
2023-10-28T06:04:14.569Z,10.35
2023-10-28T06:05:16.473Z,8.38
2023-10-28T06:06:18.148Z,10.55
2023-10-28T06:07:19.901Z,9.40
2023-10-28T06:08:21.687Z,10.60
2023-10-28T06:09:23.388Z,9.55
2023-10-28T06:10:25.088Z,10.65
2023-10-28T06:11:26.965Z,13.63
2023-10-28T06:12:28.786Z,9.13
2023-10-28T06:13:30.415Z,9.25
2023-10-28T06:14:32.028Z,8.55
2023-10-28T06:15:35.017Z,8.70
2023-10-28T06:16:36.658Z,9.45
2023-10-28T06:17:38.409Z,8.07
2023-10-28T06:18:40.062Z,10.70
2023-10-28T06:19:41.694Z,10.05
2023-10-28T06:20:43.966Z,8.10
2023-10-28T06:21:45.636Z,8.68
2023-10-28T06:22:47.457Z,9.20
2023-10-28T06:23:49.344Z,11.98
2023-10-28T06:24:50.971Z,11.02
2023-10-28T06:25:52.842Z,13.60
2023-10-28T06:26:54.539Z,10.40
2023-10-28T06:27:56.131Z,10.60
2023-10-28T06:28:57.784Z,8.98
2023-10-28T06:29:59.413Z,7.95
2023-10-28T06:31:02.404Z,9.18
2023-10-28T06:32:05.575Z,7.93
2023-10-28T06:33:07.390Z,8.85
2023-10-28T06:34:09.006Z,7.65
2023-10-28T06:35:10.694Z,9.85
2023-10-28T06:36:12.449Z,9.57
2023-10-28T06:37:14.257Z,7.97
2023-10-28T06:38:16.107Z,8.85
2023-10-28T06:39:17.746Z,9.75
2023-10-28T06:40:19.355Z,9.65
2023-10-28T06:41:20.986Z,9.10
2023-10-28T06:42:22.667Z,8.75
2023-10-28T06:43:24.405Z,9.65
2023-10-28T06:44:26.180Z,8.05
2023-10-28T06:45:28.030Z,9.63
2023-10-28T06:46:31.198Z,13.70
2023-10-28T06:47:33.904Z,11.55
2023-10-28T06:48:36.361Z,11.07
2023-10-28T06:49:38.126Z,9.30
2023-10-28T06:50:39.674Z,9.20
2023-10-28T06:51:41.316Z,10.85
2023-10-28T06:52:42.898Z,8.25
2023-10-28T06:53:44.565Z,12.45
2023-10-28T06:54:46.182Z,12.30
2023-10-28T06:55:47.799Z,10.48
2023-10-28T06:56:49.419Z,10.07
2023-10-28T06:57:51.030Z,7.50
2023-10-28T06:58:52.739Z,11.95
2023-10-28T06:59:54.526Z,9.45
2023-10-28T07:00:56.232Z,8.93
2023-10-28T07:01:59.394Z,9.50
2023-10-28T07:03:01.289Z,12.77
2023-10-28T07:04:03.190Z,10.68
2023-10-28T07:05:05.352Z,11.00
2023-10-28T07:06:08.226Z,9.85
2023-10-28T07:07:09.852Z,11.80
2023-10-28T07:08:11.503Z,10.52
2023-10-28T07:09:13.309Z,10.00
2023-10-28T07:10:14.948Z,11.32
2023-10-28T07:11:16.528Z,9.02
2023-10-28T07:12:18.170Z,14.15
2023-10-28T07:13:19.800Z,9.55
2023-10-28T07:14:21.485Z,11.30
2023-10-28T07:15:23.255Z,9.25
2023-10-28T07:16:25.127Z,9.27
2023-10-28T07:17:28.521Z,11.80
2023-10-28T07:18:30.308Z,13.38
2023-10-28T07:19:33.308Z,12.48
2023-10-28T07:20:35.261Z,11.75
2023-10-28T07:21:39.207Z,10.63
2023-10-28T07:22:40.864Z,12.52
2023-10-28T07:23:42.473Z,9.40
2023-10-28T07:24:44.233Z,13.07
2023-10-28T07:25:46.053Z,10.98
2023-10-28T07:26:47.723Z,8.93
2023-10-28T07:27:49.354Z,8.02
2023-10-28T07:28:51.132Z,11.75
2023-10-28T07:29:52.729Z,9.18
2023-10-28T07:30:54.457Z,10.48
2023-10-28T07:31:57.539Z,12.95
2023-10-28T07:33:00.503Z,8.27
2023-10-28T07:34:02.107Z,14.00
2023-10-28T07:35:04.168Z,10.93
2023-10-28T07:36:06.921Z,12.05
2023-10-28T07:37:09.872Z,11.88
2023-10-28T07:38:11.954Z,10.25
2023-10-28T07:39:16.975Z,9.18
2023-10-28T07:40:22.010Z,11.77
2023-10-28T07:41:23.782Z,10.60
2023-10-28T07:42:25.513Z,11.57
2023-10-28T07:43:27.203Z,9.90
2023-10-28T07:44:29.614Z,11.73
2023-10-28T07:45:31.377Z,14.43
2023-10-28T07:46:33.014Z,12.20
2023-10-28T07:47:34.640Z,10.55
2023-10-28T07:48:37.694Z,12.15
2023-10-28T07:49:39.249Z,12.90
2023-10-28T07:50:42.237Z,11.65
2023-10-28T07:51:43.925Z,12.60
2023-10-28T07:52:45.539Z,13.35
2023-10-28T07:53:47.151Z,11.13
2023-10-28T07:54:48.811Z,9.15
2023-10-28T07:55:50.542Z,10.82
2023-10-28T07:56:52.237Z,12.48
2023-10-28T07:57:53.844Z,12.43
2023-10-28T07:58:55.540Z,10.40
2023-10-28T07:59:57.270Z,12.40
2023-10-28T08:01:01.477Z,10.50
2023-10-28T08:02:03.470Z,13.55
2023-10-28T08:03:05.292Z,12.73
2023-10-28T08:04:08.397Z,10.77
2023-10-28T08:05:10.091Z,8.25
2023-10-28T08:06:20.303Z,11.55
2023-10-28T08:07:30.175Z,12.68
2023-10-28T08:08:31.791Z,13.10
2023-10-28T08:09:34.794Z,11.93
2023-10-28T08:10:39.327Z,10.70
2023-10-28T08:11:40.897Z,11.98
2023-10-28T08:12:42.549Z,10.48
2023-10-28T08:13:44.483Z,13.20
2023-10-28T08:14:47.169Z,11.00
2023-10-28T08:15:48.811Z,13.52
2023-10-28T08:16:50.447Z,10.02
2023-10-28T08:17:52.274Z,13.45
2023-10-28T08:18:54.112Z,12.55
2023-10-28T08:19:57.075Z,12.40
2023-10-28T08:20:58.664Z,15.27
2023-10-28T08:22:00.243Z,10.43
2023-10-28T08:23:01.837Z,11.27
2023-10-28T08:24:03.866Z,9.85
2023-10-28T08:25:09.210Z,11.85
2023-10-28T08:26:11.511Z,16.15
2023-10-28T08:27:13.471Z,11.27
2023-10-28T08:28:16.710Z,11.32
2023-10-28T08:29:18.640Z,10.07
2023-10-28T08:30:23.154Z,12.95
2023-10-28T08:31:25.289Z,10.68
2023-10-28T08:32:26.931Z,12.23
2023-10-28T08:33:28.655Z,13.07
2023-10-28T08:34:30.298Z,10.35
2023-10-28T08:35:44.387Z,11.65
2023-10-28T08:36:46.006Z,12.20
2023-10-28T08:37:48.204Z,10.55
2023-10-28T08:38:49.760Z,13.45
2023-10-28T08:39:51.408Z,10.32
2023-10-28T08:40:55.315Z,9.70
2023-10-28T08:41:59.131Z,11.07
2023-10-28T08:44:03.086Z,11.50
2023-10-28T08:45:09.415Z,11.55
2023-10-28T08:46:13.497Z,12.27
2023-10-28T08:47:16.782Z,10.20
2023-10-28T08:48:19.026Z,10.43
2023-10-28T08:49:24.735Z,12.27
2023-10-28T08:50:33.489Z,11.93
2023-10-28T08:51:39.780Z,10.65
2023-10-28T08:52:42.343Z,13.38
2023-10-28T08:53:46.204Z,8.73
2023-10-28T08:55:54.259Z,12.23
2023-10-28T08:56:56.898Z,9.43
2023-10-28T08:58:02.055Z,13.95
2023-10-28T08:59:03.730Z,8.40
2023-10-28T09:00:08.174Z,10.85
2023-10-28T09:01:10.085Z,9.32
2023-10-28T09:02:13.150Z,9.65
2023-10-28T09:03:15.389Z,7.78
2023-10-28T09:04:17.164Z,11.57
2023-10-28T09:05:18.752Z,8.90
2023-10-28T09:06:20.447Z,11.32
2023-10-28T09:07:23.607Z,8.20
2023-10-28T09:08:25.335Z,11.52
2023-10-28T09:09:28.652Z,9.07
2023-10-28T09:10:30.252Z,10.80
2023-10-28T09:11:31.884Z,10.15
2023-10-28T09:12:34.372Z,10.30
2023-10-28T09:13:36.119Z,11.90
2023-10-28T09:14:37.683Z,8.68
2023-10-28T09:15:39.390Z,11.55
2023-10-28T09:16:41.437Z,8.25
2023-10-28T09:17:44.597Z,12.82
2023-10-28T09:18:46.279Z,10.07
2023-10-28T09:19:48.110Z,10.18
2023-10-28T09:20:52.763Z,9.05
2023-10-28T09:21:56.269Z,12.38
2023-10-28T09:22:59.270Z,11.77
2023-10-28T09:24:01.658Z,12.10
2023-10-28T09:25:04.272Z,8.75
2023-10-28T09:26:06.610Z,10.52
2023-10-28T09:27:11.176Z,10.73
2023-10-28T09:28:16.255Z,7.50
2023-10-28T09:29:28.128Z,11.85
2023-10-28T09:30:29.951Z,14.30
2023-10-28T09:31:31.568Z,13.73
2023-10-28T09:32:33.835Z,10.95
2023-10-28T09:33:35.750Z,15.73
2023-10-28T09:34:38.157Z,8.07
2023-10-28T09:35:40.959Z,9.93
2023-10-28T09:36:42.599Z,9.80
2023-10-28T09:37:44.212Z,11.63
2023-10-28T09:38:48.044Z,11.40
2023-10-28T09:40:52.700Z,9.35
2023-10-28T09:41:54.947Z,11.13
2023-10-28T09:42:56.751Z,12.77
2023-10-28T09:44:01.501Z,10.82
2023-10-28T09:45:05.088Z,10.73
2023-10-28T09:46:08.197Z,10.98
2023-10-28T09:47:18.707Z,10.45
2023-10-28T09:48:21.524Z,13.50
2023-10-28T09:49:26.403Z,14.00
2023-10-28T09:50:32.608Z,11.55
2023-10-28T09:51:38.323Z,9.77
2023-10-28T09:52:43.240Z,10.00
2023-10-28T09:53:51.321Z,9.35
2023-10-28T09:55:05.109Z,9.27
2023-10-28T09:56:07.364Z,13.05
2023-10-28T09:57:09.547Z,9.18
2023-10-28T09:58:17.606Z,10.68
2023-10-28T09:59:22.190Z,9.00
2023-10-28T10:00:27.833Z,8.75
2023-10-28T10:01:38.652Z,11.02
2023-10-28T10:02:56.677Z,8.93
2023-10-28T10:04:09.448Z,12.20
2023-10-28T10:05:18.017Z,9.95
2023-10-28T10:06:20.354Z,8.48
2023-10-28T10:07:22.486Z,10.38
2023-10-28T10:08:25.039Z,8.45
2023-10-28T10:09:28.104Z,9.73
2023-10-28T10:10:30.140Z,9.02
2023-10-28T10:11:31.777Z,10.60
2023-10-28T10:12:35.596Z,8.20
2023-10-28T10:13:43.311Z,13.32
2023-10-28T10:14:46.568Z,9.05
2023-10-28T10:15:55.746Z,11.50
2023-10-28T10:17:04.735Z,9.23
2023-10-28T10:18:18.205Z,9.80
2023-10-28T10:19:24.766Z,7.20
2023-10-28T10:20:26.993Z,10.13
2023-10-28T10:21:35.150Z,9.30
2023-10-28T10:22:39.424Z,10.43
2023-10-28T10:23:44.625Z,10.93
2023-10-28T10:24:51.480Z,13.15
2023-10-28T10:25:55.727Z,9.43
2023-10-28T10:27:00.107Z,13.27
2023-10-28T10:28:12.657Z,13.40
2023-10-28T10:29:14.270Z,14.38
2023-10-28T10:30:15.882Z,10.13
2023-10-28T10:31:18.937Z,11.70
2023-10-28T10:32:20.640Z,10.25
2023-10-28T10:33:25.493Z,11.90
2023-10-28T10:34:34.380Z,11.82
2023-10-28T10:35:37.472Z,13.00
2023-10-28T10:36:40.214Z,10.57
2023-10-28T10:37:44.088Z,13.48
2023-10-28T10:39:48.276Z,11.65
2023-10-28T10:40:53.828Z,9.18
2023-10-28T10:42:00.440Z,12.63
2023-10-28T10:43:09.789Z,11.02
2023-10-28T10:44:21.527Z,9.40
2023-10-28T10:45:23.526Z,10.18
2023-10-28T10:46:25.244Z,12.52
2023-10-28T10:47:27.448Z,7.25
2023-10-28T10:48:29.170Z,9.88
2023-10-28T10:49:31.978Z,10.95
2023-10-28T10:50:33.660Z,11.95
2023-10-28T10:51:35.752Z,10.35
2023-10-28T10:52:40.540Z,8.82
2023-10-28T10:53:42.870Z,10.15
2023-10-28T10:54:44.439Z,9.52
2023-10-28T10:55:48.270Z,7.68
2023-10-28T10:57:52.825Z,9.48
2023-10-28T10:58:54.546Z,9.82
2023-10-28T10:59:56.263Z,8.18
2023-10-28T11:00:58.599Z,7.43
2023-10-28T11:03:06.685Z,9.35
2023-10-28T11:04:08.907Z,7.43
2023-10-28T11:05:10.561Z,7.15
2023-10-28T11:06:12.353Z,8.73
2023-10-28T11:07:13.963Z,8.77
2023-10-28T11:08:15.719Z,7.32
2023-10-28T11:09:17.962Z,8.65
2023-10-28T11:10:21.159Z,6.43
2023-10-28T11:11:22.824Z,9.05
2023-10-28T11:12:25.783Z,12.77
2023-10-28T11:13:27.398Z,9.68
2023-10-28T11:14:29.283Z,7.28
2023-10-28T11:15:32.926Z,6.88
2023-10-28T11:16:35.212Z,6.35
2023-10-28T11:17:36.983Z,10.25
2023-10-28T11:18:38.663Z,8.50
2023-10-28T11:19:48.166Z,8.10
2023-10-28T11:20:49.915Z,8.95
2023-10-28T11:21:51.661Z,5.72
2023-10-28T11:22:53.342Z,6.18
2023-10-28T11:23:55.583Z,6.35
2023-10-28T11:24:57.594Z,6.30
2023-10-28T11:26:03.812Z,7.85
2023-10-28T11:27:05.400Z,7.82
2023-10-28T11:28:09.407Z,7.47
2023-10-28T11:29:11.052Z,6.78
2023-10-28T11:30:13.238Z,9.05
2023-10-28T11:31:14.912Z,10.02
2023-10-28T11:32:16.545Z,6.82
2023-10-28T11:33:18.274Z,5.15
2023-10-28T11:34:20.078Z,7.25
2023-10-28T11:35:21.688Z,9.38
2023-10-28T11:36:23.616Z,7.03
2023-10-28T11:37:25.353Z,5.93
2023-10-28T11:38:27.030Z,8.90
2023-10-28T11:39:28.666Z,6.95
2023-10-28T11:40:30.331Z,7.88
2023-10-28T11:41:32.111Z,9.05
2023-10-28T11:42:34.944Z,6.15
2023-10-28T11:43:38.435Z,10.63
2023-10-28T11:44:41.783Z,10.38
2023-10-28T11:45:43.738Z,6.97
2023-10-28T11:46:45.721Z,7.15
2023-10-28T11:47:47.445Z,6.20
2023-10-28T11:48:49.032Z,8.88
2023-10-28T11:49:50.611Z,8.35
2023-10-28T11:50:52.318Z,7.53
2023-10-28T11:51:53.888Z,8.52
2023-10-28T11:52:55.584Z,7.55
2023-10-28T11:53:57.235Z,9.90
2023-10-28T11:54:58.769Z,8.50
2023-10-28T11:56:00.388Z,6.35
2023-10-28T11:57:02.133Z,10.95
2023-10-28T11:58:03.753Z,9.73
2023-10-28T11:59:06.747Z,6.93
2023-10-28T12:00:09.440Z,6.35
2023-10-28T12:01:11.387Z,8.93
2023-10-28T12:02:13.551Z,7.75
2023-10-28T12:03:15.220Z,6.63
2023-10-28T12:04:17.140Z,11.40
2023-10-28T12:05:18.823Z,5.32
2023-10-28T12:06:29.580Z,5.15
2023-10-28T12:07:34.546Z,5.72
2023-10-28T12:08:36.132Z,3.95
2023-10-28T12:09:37.716Z,5.47
2023-10-28T12:10:39.628Z,3.22
2023-10-28T12:11:41.967Z,5.63
2023-10-28T12:12:43.545Z,7.00
2023-10-28T12:13:45.158Z,7.18
2023-10-28T12:14:48.858Z,7.07
2023-10-28T12:15:50.448Z,5.63
2023-10-28T12:16:51.996Z,11.38
2023-10-28T12:17:53.612Z,7.15
2023-10-28T12:18:55.215Z,5.20
2023-10-28T12:19:56.865Z,7.03
2023-10-28T12:20:58.501Z,7.63
2023-10-28T12:22:00.111Z,4.72
2023-10-28T12:23:02.039Z,4.25
2023-10-28T12:24:04.060Z,4.50
2023-10-28T12:25:06.671Z,5.90
2023-10-28T12:26:08.486Z,6.97
2023-10-28T12:27:10.323Z,6.45
2023-10-28T12:28:11.859Z,10.05
2023-10-28T12:29:13.749Z,8.52
2023-10-28T12:30:17.109Z,7.55
2023-10-28T12:31:18.729Z,5.78
2023-10-28T12:32:20.394Z,5.72
2023-10-28T12:33:22.052Z,4.05
2023-10-28T12:34:23.678Z,4.78
2023-10-28T12:35:25.409Z,7.35
2023-10-28T12:36:27.038Z,7.85
2023-10-28T12:37:28.717Z,9.52
2023-10-28T12:38:30.344Z,10.07
2023-10-28T12:39:31.972Z,8.23
2023-10-28T12:40:33.662Z,5.28
2023-10-28T12:41:35.228Z,6.43
2023-10-28T12:42:36.970Z,5.40
2023-10-28T12:43:38.779Z,4.53
2023-10-28T12:44:40.365Z,5.25
2023-10-28T12:45:43.259Z,5.80
2023-10-28T12:46:44.837Z,7.10
2023-10-28T12:47:46.432Z,4.95
2023-10-28T12:48:48.078Z,3.75
2023-10-28T12:49:49.640Z,5.68
2023-10-28T12:50:51.238Z,9.60
2023-10-28T12:51:52.916Z,5.47
2023-10-28T12:52:54.772Z,3.90
2023-10-28T12:53:56.409Z,4.95
2023-10-28T12:55:00.871Z,4.22
2023-10-28T12:56:02.622Z,4.20
2023-10-28T12:57:04.701Z,6.30
2023-10-28T12:58:06.253Z,5.25
2023-10-28T12:59:07.922Z,5.07
2023-10-28T13:00:10.609Z,5.60
2023-10-28T13:01:13.621Z,5.10
2023-10-28T13:02:15.298Z,3.72
2023-10-28T13:03:16.972Z,3.53
2023-10-28T13:04:19.950Z,3.95
2023-10-28T13:05:23.676Z,3.13
2023-10-28T13:06:25.999Z,2.75
2023-10-28T13:07:27.625Z,2.55
2023-10-28T13:08:29.299Z,2.65
2023-10-28T13:09:31.021Z,3.95
2023-10-28T13:10:32.588Z,2.65
2023-10-28T13:11:34.318Z,3.05
2023-10-28T13:12:36.030Z,7.75
2023-10-28T13:13:38.317Z,7.80
2023-10-28T13:14:39.950Z,9.65
2023-10-28T13:15:43.135Z,10.30
2023-10-28T13:16:46.105Z,8.60
2023-10-28T13:17:47.836Z,4.18
2023-10-28T13:18:49.889Z,5.70
2023-10-28T13:19:51.527Z,3.63
2023-10-28T13:20:53.129Z,3.22
2023-10-28T13:21:54.808Z,7.50
2023-10-28T13:22:58.638Z,4.53
2023-10-28T13:24:00.233Z,3.75
2023-10-28T13:25:01.840Z,4.82
2023-10-28T13:26:03.649Z,2.05
2023-10-28T13:27:05.629Z,3.63
2023-10-28T13:28:07.924Z,1.77
2023-10-28T13:29:09.745Z,2.13
2023-10-28T13:30:12.802Z,4.05
2023-10-28T13:31:14.590Z,2.00
2023-10-28T13:32:17.667Z,2.42
2023-10-28T13:33:19.558Z,2.95
2023-10-28T13:34:21.204Z,2.33
2023-10-28T13:35:23.026Z,3.92
2023-10-28T13:36:24.939Z,2.58
2023-10-28T13:37:26.659Z,1.85
2023-10-28T13:38:28.352Z,4.10
2023-10-28T13:39:30.029Z,2.90
2023-10-28T13:40:31.792Z,2.15
2023-10-28T13:41:33.712Z,3.25